sensor_id;sensor_type;location;lat;lon;timestamp;P1;P2;P0
47810;PMS5003;33575;52.600;7.318;2023-07-13T00:00:39;6;6;
47810;PMS5003;33575;52.600;7.318;2023-07-13T00:03:09;5;5;
47810;PMS5003;33575;52.600;7.318;2023-07-13T00:05:39;5;5;
47810;PMS5003;33575;52.600;7.318;2023-07-13T00:08:10;5;5;
47810;PMS5003;33575;52.600;7.318;2023-07-13T00:10:40;3;3;
47810;PMS5003;33575;52.600;7.318;2023-07-13T00:13:10;4;4;
47810;PMS5003;33575;52.600;7.318;2023-07-13T00:15:41;4;4;
47810;PMS5003;33575;52.600;7.318;2023-07-13T00:18:11;4;4;
47810;PMS5003;33575;52.600;7.318;2023-07-13T00:20:41;2;2;
47810;PMS5003;33575;52.600;7.318;2023-07-13T00:23:12;5;5;
47810;PMS5003;33575;52.600;7.318;2023-07-13T00:25:42;4;3;
47810;PMS5003;33575;52.600;7.318;2023-07-13T00:28:12;4;4;
47810;PMS5003;33575;52.600;7.318;2023-07-13T00:30:43;4;3;
47810;PMS5003;33575;52.600;7.318;2023-07-13T00:33:18;3;3;
47810;PMS5003;33575;52.600;7.318;2023-07-13T00:35:45;3;3;
47810;PMS5003;33575;52.600;7.318;2023-07-13T00:38:14;3;3;
47810;PMS5003;33575;52.600;7.318;2023-07-13T00:40:44;2;2;
47810;PMS5003;33575;52.600;7.318;2023-07-13T00:43:15;3;2;
47810;PMS5003;33575;52.600;7.318;2023-07-13T00:48:16;3;3;
47810;PMS5003;33575;52.600;7.318;2023-07-13T00:50:46;3;2;
47810;PMS5003;33575;52.600;7.318;2023-07-13T00:53:16;5;4;
47810;PMS5003;33575;52.600;7.318;2023-07-13T00:55:47;2;2;
47810;PMS5003;33575;52.600;7.318;2023-07-13T00:58:17;1;1;
47810;PMS5003;33575;52.600;7.318;2023-07-13T01:00:47;4;4;
47810;PMS5003;33575;52.600;7.318;2023-07-13T01:03:18;2;2;
47810;PMS5003;33575;52.600;7.318;2023-07-13T01:05:48;2;2;
47810;PMS5003;33575;52.600;7.318;2023-07-13T01:08:18;4;2;
47810;PMS5003;33575;52.600;7.318;2023-07-13T01:10:52;2;2;
47810;PMS5003;33575;52.600;7.318;2023-07-13T01:13:19;3;2;
47810;PMS5003;33575;52.600;7.318;2023-07-13T01:15:50;3;3;
47810;PMS5003;33575;52.600;7.318;2023-07-13T01:18:20;5;4;
47810;PMS5003;33575;52.600;7.318;2023-07-13T01:20:50;2;2;
47810;PMS5003;33575;52.600;7.318;2023-07-13T01:23:20;2;2;
47810;PMS5003;33575;52.600;7.318;2023-07-13T01:25:51;2;1;
47810;PMS5003;33575;52.600;7.318;2023-07-13T01:28:21;3;3;
47810;PMS5003;33575;52.600;7.318;2023-07-13T01:30:51;3;3;
47810;PMS5003;33575;52.600;7.318;2023-07-13T01:33:22;2;2;
47810;PMS5003;33575;52.600;7.318;2023-07-13T01:35:52;4;3;
47810;PMS5003;33575;52.600;7.318;2023-07-13T01:38:22;4;4;
47810;PMS5003;33575;52.600;7.318;2023-07-13T01:40:53;3;2;
47810;PMS5003;33575;52.600;7.318;2023-07-13T01:43:23;3;2;
47810;PMS5003;33575;52.600;7.318;2023-07-13T01:45:53;3;2;
47810;PMS5003;33575;52.600;7.318;2023-07-13T01:48:24;5;3;
47810;PMS5003;33575;52.600;7.318;2023-07-13T01:50:54;5;4;
47810;PMS5003;33575;52.600;7.318;2023-07-13T01:53:24;3;3;
47810;PMS5003;33575;52.600;7.318;2023-07-13T01:55:55;3;3;
47810;PMS5003;33575;52.600;7.318;2023-07-13T01:58:25;4;4;
47810;PMS5003;33575;52.600;7.318;2023-07-13T02:00:56;4;3;
47810;PMS5003;33575;52.600;7.318;2023-07-13T02:03:26;2;2;
47810;PMS5003;33575;52.600;7.318;2023-07-13T02:05:56;5;5;
47810;PMS5003;33575;52.600;7.318;2023-07-13T02:08:27;2;2;
47810;PMS5003;33575;52.600;7.318;2023-07-13T02:10:57;3;2;
47810;PMS5003;33575;52.600;7.318;2023-07-13T02:13:27;4;3;
47810;PMS5003;33575;52.600;7.318;2023-07-13T02:15:57;5;5;
47810;PMS5003;33575;52.600;7.318;2023-07-13T02:18:28;5;3;
47810;PMS5003;33575;52.600;7.318;2023-07-13T02:20:58;6;4;
47810;PMS5003;33575;52.600;7.318;2023-07-13T02:23:28;8;5;
47810;PMS5003;33575;52.600;7.318;2023-07-13T02:26:00;5;4;
47810;PMS5003;33575;52.600;7.318;2023-07-13T02:28:29;6;4;
47810;PMS5003;33575;52.600;7.318;2023-07-13T02:33:30;3;3;
47810;PMS5003;33575;52.600;7.318;2023-07-13T02:36:00;5;3;
47810;PMS5003;33575;52.600;7.318;2023-07-13T02:38:31;4;3;
47810;PMS5003;33575;52.600;7.318;2023-07-13T02:41:01;2;2;
47810;PMS5003;33575;52.600;7.318;2023-07-13T02:43:31;4;4;
47810;PMS5003;33575;52.600;7.318;2023-07-13T02:46:02;5;5;
47810;PMS5003;33575;52.600;7.318;2023-07-13T02:48:32;5;4;
47810;PMS5003;33575;52.600;7.318;2023-07-13T02:51:02;5;4;
47810;PMS5003;33575;52.600;7.318;2023-07-13T02:53:33;4;4;
47810;PMS5003;33575;52.600;7.318;2023-07-13T02:56:03;4;4;
47810;PMS5003;33575;52.600;7.318;2023-07-13T02:58:33;4;4;
47810;PMS5003;33575;52.600;7.318;2023-07-13T03:01:06;4;4;
47810;PMS5003;33575;52.600;7.318;2023-07-13T03:03:34;4;4;
47810;PMS5003;33575;52.600;7.318;2023-07-13T03:06:05;7;5;
47810;PMS5003;33575;52.600;7.318;2023-07-13T03:08:35;5;5;
47810;PMS5003;33575;52.600;7.318;2023-07-13T03:11:07;4;4;
47810;PMS5003;33575;52.600;7.318;2023-07-13T03:13:36;5;5;
47810;PMS5003;33575;52.600;7.318;2023-07-13T03:16:06;6;6;
47810;PMS5003;33575;52.600;7.318;2023-07-13T03:18:37;9;6;
47810;PMS5003;33575;52.600;7.318;2023-07-13T03:21:07;4;4;
47810;PMS5003;33575;52.600;7.318;2023-07-13T03:23:37;5;4;
47810;PMS5003;33575;52.600;7.318;2023-07-13T03:26:09;7;5;
47810;PMS5003;33575;52.600;7.318;2023-07-13T03:28:38;4;4;
47810;PMS5003;33575;52.600;7.318;2023-07-13T03:31:09;8;4;
47810;PMS5003;33575;52.600;7.318;2023-07-13T03:33:38;6;6;
47810;PMS5003;33575;52.600;7.318;2023-07-13T03:36:14;6;4;
47810;PMS5003;33575;52.600;7.318;2023-07-13T03:38:39;7;4;
47810;PMS5003;33575;52.600;7.318;2023-07-13T03:41:09;5;4;
47810;PMS5003;33575;52.600;7.318;2023-07-13T03:43:40;5;4;
47810;PMS5003;33575;52.600;7.318;2023-07-13T03:46:11;4;4;
47810;PMS5003;33575;52.600;7.318;2023-07-13T03:48:41;5;5;
47810;PMS5003;33575;52.600;7.318;2023-07-13T03:51:11;4;4;
47810;PMS5003;33575;52.600;7.318;2023-07-13T03:53:42;5;4;
47810;PMS5003;33575;52.600;7.318;2023-07-13T03:56:12;5;3;
47810;PMS5003;33575;52.600;7.318;2023-07-13T03:58:43;4;4;
47810;PMS5003;33575;52.600;7.318;2023-07-13T04:01:13;4;3;
47810;PMS5003;33575;52.600;7.318;2023-07-13T04:03:43;5;5;
47810;PMS5003;33575;52.600;7.318;2023-07-13T04:06:15;6;5;
47810;PMS5003;33575;52.600;7.318;2023-07-13T04:08:43;3;3;
47810;PMS5003;33575;52.600;7.318;2023-07-13T04:11:14;5;4;
47810;PMS5003;33575;52.600;7.318;2023-07-13T04:13:44;6;4;
47810;PMS5003;33575;52.600;7.318;2023-07-13T04:16:15;3;3;
47810;PMS5003;33575;52.600;7.318;2023-07-13T04:18:45;4;4;
47810;PMS5003;33575;52.600;7.318;2023-07-13T04:21:15;4;4;
47810;PMS5003;33575;52.600;7.318;2023-07-13T04:23:45;4;4;
47810;PMS5003;33575;52.600;7.318;2023-07-13T04:26:16;6;4;
47810;PMS5003;33575;52.600;7.318;2023-07-13T04:28:46;4;3;
47810;PMS5003;33575;52.600;7.318;2023-07-13T04:31:17;5;4;
47810;PMS5003;33575;52.600;7.318;2023-07-13T04:33:49;6;4;
47810;PMS5003;33575;52.600;7.318;2023-07-13T04:36:17;5;4;
47810;PMS5003;33575;52.600;7.318;2023-07-13T04:38:48;5;5;
47810;PMS5003;33575;52.600;7.318;2023-07-13T04:41:18;5;4;
47810;PMS5003;33575;52.600;7.318;2023-07-13T04:43:48;7;4;
47810;PMS5003;33575;52.600;7.318;2023-07-13T04:46:19;3;3;
47810;PMS5003;33575;52.600;7.318;2023-07-13T04:48:49;4;4;
47810;PMS5003;33575;52.600;7.318;2023-07-13T04:51:19;5;3;
47810;PMS5003;33575;52.600;7.318;2023-07-13T04:53:53;4;3;
47810;PMS5003;33575;52.600;7.318;2023-07-13T04:56:20;4;4;
47810;PMS5003;33575;52.600;7.318;2023-07-13T04:58:51;3;3;
47810;PMS5003;33575;52.600;7.318;2023-07-13T05:01:21;3;3;
47810;PMS5003;33575;52.600;7.318;2023-07-13T05:03:51;4;4;
47810;PMS5003;33575;52.600;7.318;2023-07-13T05:06:22;4;3;
47810;PMS5003;33575;52.600;7.318;2023-07-13T05:08:52;7;7;
47810;PMS5003;33575;52.600;7.318;2023-07-13T05:11:23;5;5;
47810;PMS5003;33575;52.600;7.318;2023-07-13T05:13:53;6;4;
47810;PMS5003;33575;52.600;7.318;2023-07-13T05:16:23;6;4;
47810;PMS5003;33575;52.600;7.318;2023-07-13T05:18:53;8;6;
47810;PMS5003;33575;52.600;7.318;2023-07-13T05:21:24;7;6;
47810;PMS5003;33575;52.600;7.318;2023-07-13T05:23:54;6;4;
47810;PMS5003;33575;52.600;7.318;2023-07-13T05:26:25;7;5;
47810;PMS5003;33575;52.600;7.318;2023-07-13T05:28:55;4;4;
47810;PMS5003;33575;52.600;7.318;2023-07-13T05:31:25;7;6;
47810;PMS5003;33575;52.600;7.318;2023-07-13T05:33:55;5;4;
47810;PMS5003;33575;52.600;7.318;2023-07-13T05:36:26;5;4;
47810;PMS5003;33575;52.600;7.318;2023-07-13T05:38:56;7;6;
47810;PMS5003;33575;52.600;7.318;2023-07-13T05:41:27;7;7;
47810;PMS5003;33575;52.600;7.318;2023-07-13T05:43:57;5;5;
47810;PMS5003;33575;52.600;7.318;2023-07-13T05:46:27;7;6;
47810;PMS5003;33575;52.600;7.318;2023-07-13T05:48:58;6;6;
47810;PMS5003;33575;52.600;7.318;2023-07-13T05:51:28;7;5;
47810;PMS5003;33575;52.600;7.318;2023-07-13T05:53:58;6;5;
47810;PMS5003;33575;52.600;7.318;2023-07-13T05:56:29;7;6;
47810;PMS5003;33575;52.600;7.318;2023-07-13T05:58:59;7;6;
47810;PMS5003;33575;52.600;7.318;2023-07-13T06:01:30;7;6;
47810;PMS5003;33575;52.600;7.318;2023-07-13T06:04:00;7;7;
47810;PMS5003;33575;52.600;7.318;2023-07-13T06:06:32;6;5;
47810;PMS5003;33575;52.600;7.318;2023-07-13T06:09:02;6;6;
47810;PMS5003;33575;52.600;7.318;2023-07-13T06:11:32;6;6;
47810;PMS5003;33575;52.600;7.318;2023-07-13T06:14:02;8;6;
47810;PMS5003;33575;52.600;7.318;2023-07-13T06:16:33;8;7;
47810;PMS5003;33575;52.600;7.318;2023-07-13T06:19:03;7;6;
47810;PMS5003;33575;52.600;7.318;2023-07-13T06:21:34;11;8;
47810;PMS5003;33575;52.600;7.318;2023-07-13T06:24:04;6;6;
47810;PMS5003;33575;52.600;7.318;2023-07-13T06:26:35;9;7;
47810;PMS5003;33575;52.600;7.318;2023-07-13T06:29:05;8;7;
47810;PMS5003;33575;52.600;7.318;2023-07-13T06:31:36;8;6;
47810;PMS5003;33575;52.600;7.318;2023-07-13T06:34:06;7;6;
47810;PMS5003;33575;52.600;7.318;2023-07-13T06:36:36;8;6;
47810;PMS5003;33575;52.600;7.318;2023-07-13T06:39:07;6;6;
47810;PMS5003;33575;52.600;7.318;2023-07-13T06:41:37;7;7;
47810;PMS5003;33575;52.600;7.318;2023-07-13T06:44:07;5;4;
47810;PMS5003;33575;52.600;7.318;2023-07-13T06:46:38;8;7;
47810;PMS5003;33575;52.600;7.318;2023-07-13T06:49:08;8;6;
47810;PMS5003;33575;52.600;7.318;2023-07-13T06:51:38;5;5;
47810;PMS5003;33575;52.600;7.318;2023-07-13T06:54:08;6;6;
47810;PMS5003;33575;52.600;7.318;2023-07-13T06:56:39;7;6;
47810;PMS5003;33575;52.600;7.318;2023-07-13T06:59:10;6;5;
47810;PMS5003;33575;52.600;7.318;2023-07-13T07:01:42;8;7;
47810;PMS5003;33575;52.600;7.318;2023-07-13T07:04:10;7;7;
47810;PMS5003;33575;52.600;7.318;2023-07-13T07:06:41;6;6;
47810;PMS5003;33575;52.600;7.318;2023-07-13T07:09:11;7;6;
47810;PMS5003;33575;52.600;7.318;2023-07-13T07:11:46;6;6;
47810;PMS5003;33575;52.600;7.318;2023-07-13T07:14:12;6;6;
47810;PMS5003;33575;52.600;7.318;2023-07-13T07:16:42;7;6;
47810;PMS5003;33575;52.600;7.318;2023-07-13T07:19:12;9;6;
47810;PMS5003;33575;52.600;7.318;2023-07-13T07:21:43;7;7;
47810;PMS5003;33575;52.600;7.318;2023-07-13T07:24:13;10;5;
47810;PMS5003;33575;52.600;7.318;2023-07-13T07:26:47;8;7;
47810;PMS5003;33575;52.600;7.318;2023-07-13T07:29:17;7;7;
47810;PMS5003;33575;52.600;7.318;2023-07-13T07:31:47;7;6;
47810;PMS5003;33575;52.600;7.318;2023-07-13T07:34:15;6;6;
47810;PMS5003;33575;52.600;7.318;2023-07-13T07:36:48;11;9;
47810;PMS5003;33575;52.600;7.318;2023-07-13T07:39:15;10;8;
47810;PMS5003;33575;52.600;7.318;2023-07-13T07:41:51;10;9;
47810;PMS5003;33575;52.600;7.318;2023-07-13T07:44:17;10;8;
47810;PMS5003;33575;52.600;7.318;2023-07-13T07:46:47;9;7;
47810;PMS5003;33575;52.600;7.318;2023-07-13T07:49:18;10;9;
47810;PMS5003;33575;52.600;7.318;2023-07-13T07:51:48;12;11;
47810;PMS5003;33575;52.600;7.318;2023-07-13T07:54:24;8;8;
47810;PMS5003;33575;52.600;7.318;2023-07-13T07:56:54;9;9;
47810;PMS5003;33575;52.600;7.318;2023-07-13T07:59:22;13;9;
47810;PMS5003;33575;52.600;7.318;2023-07-13T08:01:53;9;9;
47810;PMS5003;33575;52.600;7.318;2023-07-13T08:04:23;9;9;
47810;PMS5003;33575;52.600;7.318;2023-07-13T08:06:50;9;9;
47810;PMS5003;33575;52.600;7.318;2023-07-13T08:09:20;10;9;
47810;PMS5003;33575;52.600;7.318;2023-07-13T08:11:54;14;10;
47810;PMS5003;33575;52.600;7.318;2023-07-13T08:14:21;12;10;
47810;PMS5003;33575;52.600;7.318;2023-07-13T08:16:51;12;11;
47810;PMS5003;33575;52.600;7.318;2023-07-13T08:19:22;12;11;
47810;PMS5003;33575;52.600;7.318;2023-07-13T08:21:52;13;11;
47810;PMS5003;33575;52.600;7.318;2023-07-13T08:24:23;11;10;
47810;PMS5003;33575;52.600;7.318;2023-07-13T08:26:53;11;11;
47810;PMS5003;33575;52.600;7.318;2023-07-13T08:29:23;12;11;
47810;PMS5003;33575;52.600;7.318;2023-07-13T08:31:54;14;14;
47810;PMS5003;33575;52.600;7.318;2023-07-13T08:34:24;14;11;
47810;PMS5003;33575;52.600;7.318;2023-07-13T08:36:54;15;14;
47810;PMS5003;33575;52.600;7.318;2023-07-13T08:39:24;14;12;
47810;PMS5003;33575;52.600;7.318;2023-07-13T08:41:56;12;11;
47810;PMS5003;33575;52.600;7.318;2023-07-13T08:44:27;10;10;
47810;PMS5003;33575;52.600;7.318;2023-07-13T08:46:56;10;9;
47810;PMS5003;33575;52.600;7.318;2023-07-13T08:49:26;13;12;
47810;PMS5003;33575;52.600;7.318;2023-07-13T08:51:58;12;12;
47810;PMS5003;33575;52.600;7.318;2023-07-13T08:54:28;12;12;
47810;PMS5003;33575;52.600;7.318;2023-07-13T08:56:58;13;13;
47810;PMS5003;33575;52.600;7.318;2023-07-13T08:59:28;11;11;
47810;PMS5003;33575;52.600;7.318;2023-07-13T09:02:03;10;10;
47810;PMS5003;33575;52.600;7.318;2023-07-13T09:04:30;11;11;
47810;PMS5003;33575;52.600;7.318;2023-07-13T09:07:01;15;13;
47810;PMS5003;33575;52.600;7.318;2023-07-13T09:09:32;13;13;
47810;PMS5003;33575;52.600;7.318;2023-07-13T09:12:00;10;9;
47810;PMS5003;33575;52.600;7.318;2023-07-13T09:17:00;10;10;
47810;PMS5003;33575;52.600;7.318;2023-07-13T09:19:30;13;11;
47810;PMS5003;33575;52.600;7.318;2023-07-13T09:22:01;11;10;
47810;PMS5003;33575;52.600;7.318;2023-07-13T09:24:35;12;11;
47810;PMS5003;33575;52.600;7.318;2023-07-13T09:27:02;12;10;
47810;PMS5003;33575;52.600;7.318;2023-07-13T09:29:33;10;10;
47810;PMS5003;33575;52.600;7.318;2023-07-13T09:32:04;11;10;
47810;PMS5003;33575;52.600;7.318;2023-07-13T09:34:33;13;13;
47810;PMS5003;33575;52.600;7.318;2023-07-13T09:37:04;14;13;
47810;PMS5003;33575;52.600;7.318;2023-07-13T09:39:35;10;10;
47810;PMS5003;33575;52.600;7.318;2023-07-13T09:42:07;12;11;
47810;PMS5003;33575;52.600;7.318;2023-07-13T09:44:36;13;11;
47810;PMS5003;33575;52.600;7.318;2023-07-13T09:49:36;9;8;
47810;PMS5003;33575;52.600;7.318;2023-07-13T09:52:09;9;9;
47810;PMS5003;33575;52.600;7.318;2023-07-13T09:54:37;11;10;
47810;PMS5003;33575;52.600;7.318;2023-07-13T09:57:12;10;10;
47810;PMS5003;33575;52.600;7.318;2023-07-13T09:59:39;10;10;
47810;PMS5003;33575;52.600;7.318;2023-07-13T10:04:38;11;11;
47810;PMS5003;33575;52.600;7.318;2023-07-13T10:07:13;12;11;
47810;PMS5003;33575;52.600;7.318;2023-07-13T10:09:39;11;11;
47810;PMS5003;33575;52.600;7.318;2023-07-13T10:12:13;11;10;
47810;PMS5003;33575;52.600;7.318;2023-07-13T10:14:39;11;10;
47810;PMS5003;33575;52.600;7.318;2023-07-13T10:17:12;12;12;
47810;PMS5003;33575;52.600;7.318;2023-07-13T10:19:41;16;15;
47810;PMS5003;33575;52.600;7.318;2023-07-13T10:22:12;14;12;
47810;PMS5003;33575;52.600;7.318;2023-07-13T10:24:41;13;11;
47810;PMS5003;33575;52.600;7.318;2023-07-13T10:27:12;8;7;
47810;PMS5003;33575;52.600;7.318;2023-07-13T10:29:42;5;5;
47810;PMS5003;33575;52.600;7.318;2023-07-13T10:32:13;6;5;
47810;PMS5003;33575;52.600;7.318;2023-07-13T10:34:43;8;6;
47810;PMS5003;33575;52.600;7.318;2023-07-13T10:37:15;6;6;
47810;PMS5003;33575;52.600;7.318;2023-07-13T10:39:43;6;6;
47810;PMS5003;33575;52.600;7.318;2023-07-13T10:42:18;8;7;
47810;PMS5003;33575;52.600;7.318;2023-07-13T10:44:44;5;5;
47810;PMS5003;33575;52.600;7.318;2023-07-13T10:47:15;6;5;
47810;PMS5003;33575;52.600;7.318;2023-07-13T10:49:44;6;6;
47810;PMS5003;33575;52.600;7.318;2023-07-13T10:54:45;6;6;
47810;PMS5003;33575;52.600;7.318;2023-07-13T10:57:16;9;6;
47810;PMS5003;33575;52.600;7.318;2023-07-13T10:59:47;7;6;
47810;PMS5003;33575;52.600;7.318;2023-07-13T11:02:21;7;7;
47810;PMS5003;33575;52.600;7.318;2023-07-13T11:04:47;6;6;
47810;PMS5003;33575;52.600;7.318;2023-07-13T11:07:19;7;6;
47810;PMS5003;33575;52.600;7.318;2023-07-13T11:09:49;6;6;
47810;PMS5003;33575;52.600;7.318;2023-07-13T11:19:50;9;9;
47810;PMS5003;33575;52.600;7.318;2023-07-13T11:22:23;9;8;
47810;PMS5003;33575;52.600;7.318;2023-07-13T11:24:57;10;8;
47810;PMS5003;33575;52.600;7.318;2023-07-13T11:27:23;9;6;
47810;PMS5003;33575;52.600;7.318;2023-07-13T11:29:50;7;7;
47810;PMS5003;33575;52.600;7.318;2023-07-13T11:32:21;8;7;
47810;PMS5003;33575;52.600;7.318;2023-07-13T11:34:50;11;9;
47810;PMS5003;33575;52.600;7.318;2023-07-13T11:37:20;7;7;
47810;PMS5003;33575;52.600;7.318;2023-07-13T11:39:50;10;9;
47810;PMS5003;33575;52.600;7.318;2023-07-13T11:42:21;10;9;
47810;PMS5003;33575;52.600;7.318;2023-07-13T11:44:56;11;10;
47810;PMS5003;33575;52.600;7.318;2023-07-13T11:47:22;9;8;
47810;PMS5003;33575;52.600;7.318;2023-07-13T11:49:53;9;9;
47810;PMS5003;33575;52.600;7.318;2023-07-13T11:52:23;8;8;
47810;PMS5003;33575;52.600;7.318;2023-07-13T11:54:53;8;7;
47810;PMS5003;33575;52.600;7.318;2023-07-13T11:57:24;8;6;
47810;PMS5003;33575;52.600;7.318;2023-07-13T11:59:53;6;5;
47810;PMS5003;33575;52.600;7.318;2023-07-13T12:02:26;4;3;
47810;PMS5003;33575;52.600;7.318;2023-07-13T12:04:54;4;3;
47810;PMS5003;33575;52.600;7.318;2023-07-13T12:07:24;2;2;
47810;PMS5003;33575;52.600;7.318;2023-07-13T12:09:59;2;2;
47810;PMS5003;33575;52.600;7.318;2023-07-13T12:12:28;4;3;
47810;PMS5003;33575;52.600;7.318;2023-07-13T12:14:55;3;3;
47810;PMS5003;33575;52.600;7.318;2023-07-13T12:17:26;3;2;
47810;PMS5003;33575;52.600;7.318;2023-07-13T12:19:56;3;2;
47810;PMS5003;33575;52.600;7.318;2023-07-13T12:22:26;1;1;
47810;PMS5003;33575;52.600;7.318;2023-07-13T12:24:56;4;3;
47810;PMS5003;33575;52.600;7.318;2023-07-13T12:27:27;2;2;
47810;PMS5003;33575;52.600;7.318;2023-07-13T12:29:58;3;3;
47810;PMS5003;33575;52.600;7.318;2023-07-13T12:32:27;4;4;
47810;PMS5003;33575;52.600;7.318;2023-07-13T12:35:03;4;4;
47810;PMS5003;33575;52.600;7.318;2023-07-13T12:37:28;3;3;
47810;PMS5003;33575;52.600;7.318;2023-07-13T12:39:58;4;4;
47810;PMS5003;33575;52.600;7.318;2023-07-13T12:42:29;3;3;
47810;PMS5003;33575;52.600;7.318;2023-07-13T12:45:00;4;4;
47810;PMS5003;33575;52.600;7.318;2023-07-13T12:47:30;5;4;
47810;PMS5003;33575;52.600;7.318;2023-07-13T12:49:59;5;5;
47810;PMS5003;33575;52.600;7.318;2023-07-13T12:52:30;5;5;
47810;PMS5003;33575;52.600;7.318;2023-07-13T12:55:06;8;8;
47810;PMS5003;33575;52.600;7.318;2023-07-13T12:57:30;9;8;
47810;PMS5003;33575;52.600;7.318;2023-07-13T13:00:00;9;9;
47810;PMS5003;33575;52.600;7.318;2023-07-13T13:02:32;10;9;
47810;PMS5003;33575;52.600;7.318;2023-07-13T13:05:01;7;6;
47810;PMS5003;33575;52.600;7.318;2023-07-13T13:07:31;9;9;
47810;PMS5003;33575;52.600;7.318;2023-07-13T13:10:07;7;7;
47810;PMS5003;33575;52.600;7.318;2023-07-13T13:12:32;8;8;
47810;PMS5003;33575;52.600;7.318;2023-07-13T13:15:02;11;11;
47810;PMS5003;33575;52.600;7.318;2023-07-13T13:17:32;12;11;
47810;PMS5003;33575;52.600;7.318;2023-07-13T13:20:04;11;11;
47810;PMS5003;33575;52.600;7.318;2023-07-13T13:22:33;11;10;
47810;PMS5003;33575;52.600;7.318;2023-07-13T13:25:08;10;10;
47810;PMS5003;33575;52.600;7.318;2023-07-13T13:27:33;12;11;
47810;PMS5003;33575;52.600;7.318;2023-07-13T13:30:08;12;12;
47810;PMS5003;33575;52.600;7.318;2023-07-13T13:32:34;11;10;
47810;PMS5003;33575;52.600;7.318;2023-07-13T13:35:05;10;8;
47810;PMS5003;33575;52.600;7.318;2023-07-13T13:37:35;10;9;
47810;PMS5003;33575;52.600;7.318;2023-07-13T13:40:13;11;11;
47810;PMS5003;33575;52.600;7.318;2023-07-13T13:42:35;6;6;
47810;PMS5003;33575;52.600;7.318;2023-07-13T13:45:07;8;8;
47810;PMS5003;33575;52.600;7.318;2023-07-13T13:47:36;9;8;
47810;PMS5003;33575;52.600;7.318;2023-07-13T13:50:11;8;8;
47810;PMS5003;33575;52.600;7.318;2023-07-13T13:52:37;6;6;
47810;PMS5003;33575;52.600;7.318;2023-07-13T13:55:11;8;7;
47810;PMS5003;33575;52.600;7.318;2023-07-13T13:57:37;7;6;
47810;PMS5003;33575;52.600;7.318;2023-07-13T14:00:09;8;7;
47810;PMS5003;33575;52.600;7.318;2023-07-13T14:02:38;6;6;
47810;PMS5003;33575;52.600;7.318;2023-07-13T14:05:09;5;4;
47810;PMS5003;33575;52.600;7.318;2023-07-13T14:07:38;3;3;
47810;PMS5003;33575;52.600;7.318;2023-07-13T14:10:11;5;5;
47810;PMS5003;33575;52.600;7.318;2023-07-13T14:12:39;6;6;
47810;PMS5003;33575;52.600;7.318;2023-07-13T14:15:12;5;5;
47810;PMS5003;33575;52.600;7.318;2023-07-13T14:17:44;4;4;
47810;PMS5003;33575;52.600;7.318;2023-07-13T14:20:10;5;4;
47810;PMS5003;33575;52.600;7.318;2023-07-13T14:22:40;7;6;
47810;PMS5003;33575;52.600;7.318;2023-07-13T14:25:10;6;6;
47810;PMS5003;33575;52.600;7.318;2023-07-13T14:27:41;8;8;
47810;PMS5003;33575;52.600;7.318;2023-07-13T14:30:12;8;7;
47810;PMS5003;33575;52.600;7.318;2023-07-13T14:32:41;6;6;
47810;PMS5003;33575;52.600;7.318;2023-07-13T14:35:11;7;6;
47810;PMS5003;33575;52.600;7.318;2023-07-13T14:37:42;6;5;
47810;PMS5003;33575;52.600;7.318;2023-07-13T14:40:13;6;6;
47810;PMS5003;33575;52.600;7.318;2023-07-13T14:42:42;8;7;
47810;PMS5003;33575;52.600;7.318;2023-07-13T14:45:13;8;8;
47810;PMS5003;33575;52.600;7.318;2023-07-13T14:47:43;8;8;
47810;PMS5003;33575;52.600;7.318;2023-07-13T14:50:14;7;7;
47810;PMS5003;33575;52.600;7.318;2023-07-13T14:52:43;8;8;
47810;PMS5003;33575;52.600;7.318;2023-07-13T14:55:15;7;7;
47810;PMS5003;33575;52.600;7.318;2023-07-13T14:57:44;7;7;
47810;PMS5003;33575;52.600;7.318;2023-07-13T15:00:15;8;8;
47810;PMS5003;33575;52.600;7.318;2023-07-13T15:02:45;7;7;
47810;PMS5003;33575;52.600;7.318;2023-07-13T15:05:15;7;7;
47810;PMS5003;33575;52.600;7.318;2023-07-13T15:07:45;9;9;
47810;PMS5003;33575;52.600;7.318;2023-07-13T15:10:16;7;7;
47810;PMS5003;33575;52.600;7.318;2023-07-13T15:12:45;7;6;
47810;PMS5003;33575;52.600;7.318;2023-07-13T15:15:15;8;8;
47810;PMS5003;33575;52.600;7.318;2023-07-13T15:17:46;9;9;
47810;PMS5003;33575;52.600;7.318;2023-07-13T15:20:17;8;8;
47810;PMS5003;33575;52.600;7.318;2023-07-13T15:22:47;7;7;
47810;PMS5003;33575;52.600;7.318;2023-07-13T15:25:18;11;9;
47810;PMS5003;33575;52.600;7.318;2023-07-13T15:27:47;9;8;
47810;PMS5003;33575;52.600;7.318;2023-07-13T15:30:18;8;7;
47810;PMS5003;33575;52.600;7.318;2023-07-13T15:32:48;7;7;
47810;PMS5003;33575;52.600;7.318;2023-07-13T15:35:19;7;7;
47810;PMS5003;33575;52.600;7.318;2023-07-13T15:37:48;8;8;
47810;PMS5003;33575;52.600;7.318;2023-07-13T15:40:19;6;6;
47810;PMS5003;33575;52.600;7.318;2023-07-13T15:42:49;6;6;
47810;PMS5003;33575;52.600;7.318;2023-07-13T15:45:20;10;8;
47810;PMS5003;33575;52.600;7.318;2023-07-13T15:47:50;8;8;
47810;PMS5003;33575;52.600;7.318;2023-07-13T15:50:20;8;8;
47810;PMS5003;33575;52.600;7.318;2023-07-13T15:52:52;7;7;
47810;PMS5003;33575;52.600;7.318;2023-07-13T15:55:21;9;9;
47810;PMS5003;33575;52.600;7.318;2023-07-13T15:57:51;7;7;
47810;PMS5003;33575;52.600;7.318;2023-07-13T16:00:22;7;7;
47810;PMS5003;33575;52.600;7.318;2023-07-13T16:02:52;9;8;
47810;PMS5003;33575;52.600;7.318;2023-07-13T16:05:22;7;6;
47810;PMS5003;33575;52.600;7.318;2023-07-13T16:07:52;8;8;
47810;PMS5003;33575;52.600;7.318;2023-07-13T16:10:24;7;7;
47810;PMS5003;33575;52.600;7.318;2023-07-13T16:12:52;8;8;
47810;PMS5003;33575;52.600;7.318;2023-07-13T16:15:23;6;6;
47810;PMS5003;33575;52.600;7.318;2023-07-13T16:17:53;9;8;
47810;PMS5003;33575;52.600;7.318;2023-07-13T16:20:23;8;7;
47810;PMS5003;33575;52.600;7.318;2023-07-13T16:22:53;7;7;
47810;PMS5003;33575;52.600;7.318;2023-07-13T16:25:24;9;8;
47810;PMS5003;33575;52.600;7.318;2023-07-13T16:27:54;6;6;
47810;PMS5003;33575;52.600;7.318;2023-07-13T16:30:24;7;7;
47810;PMS5003;33575;52.600;7.318;2023-07-13T16:32:55;5;5;
47810;PMS5003;33575;52.600;7.318;2023-07-13T16:35:25;5;5;
47810;PMS5003;33575;52.600;7.318;2023-07-13T16:38:00;4;3;
47810;PMS5003;33575;52.600;7.318;2023-07-13T16:40:26;2;2;
47810;PMS5003;33575;52.600;7.318;2023-07-13T16:42:56;4;3;
47810;PMS5003;33575;52.600;7.318;2023-07-13T16:45:26;4;4;
47810;PMS5003;33575;52.600;7.318;2023-07-13T16:47:56;5;4;
47810;PMS5003;33575;52.600;7.318;2023-07-13T16:50:29;4;4;
47810;PMS5003;33575;52.600;7.318;2023-07-13T16:52:56;4;4;
47810;PMS5003;33575;52.600;7.318;2023-07-13T16:55:26;4;3;
47810;PMS5003;33575;52.600;7.318;2023-07-13T16:57:57;6;4;
47810;PMS5003;33575;52.600;7.318;2023-07-13T17:00:28;5;4;
47810;PMS5003;33575;52.600;7.318;2023-07-13T17:02:57;4;3;
47810;PMS5003;33575;52.600;7.318;2023-07-13T17:05:28;5;5;
47810;PMS5003;33575;52.600;7.318;2023-07-13T17:07:58;4;4;
47810;PMS5003;33575;52.600;7.318;2023-07-13T17:10:28;5;5;
47810;PMS5003;33575;52.600;7.318;2023-07-13T17:12:58;3;3;
47810;PMS5003;33575;52.600;7.318;2023-07-13T17:15:29;4;4;
47810;PMS5003;33575;52.600;7.318;2023-07-13T17:17:58;5;4;
47810;PMS5003;33575;52.600;7.318;2023-07-13T17:20:29;4;4;
47810;PMS5003;33575;52.600;7.318;2023-07-13T17:22:59;5;4;
47810;PMS5003;33575;52.600;7.318;2023-07-13T17:25:29;3;3;
47810;PMS5003;33575;52.600;7.318;2023-07-13T17:27:59;3;3;